Plain City, Ohio
Current Conditions -  °F | °C
As of 6:13 AM on Tuesday 21 Oct 2014 (Local Time) from KMRT Reporting Station
Overcast Overcast  
Wind Chill: 45°   Ceiling: 1200
Heat Index: 49°   Visibility: 10mi
Dew Point: 45°   Wind: 10mph
Humidity: 84%   Direction: 320°NW
Pressure: 29.9"   Gusts: NA
Location:  40.11°N, 83.27°W
Report Text: KMRT 211013Z AUTO 32009KT 10SM BKN012 OVC023 10/07 A2990 RMK AO2 T00950070
Loading
Personal Weather Stations






























Interactive Weather Map
Tropical Storm Tracking
New forecast layout! Learn more

10-Day Weather Forecast

Advertisements
Track Severe Weather on mobile